Time;durP1;ratioP1;P1;durP2;ratioP2;P2;SDS_P1;SDS_P2;PMS_P1;PMS_P2;Temp;Humidity;BMP_temperature;BMP_pressure;BME280_temperature;BME280_humidity;BME280_pressure;Samples;Min_cycle;Max_cycle;Signal;HPM_P1;HPM_P2
2021/12/17 00:04:51;;;;;;;25.85;13.43;;;;;;;4.64;100.00;101343.19;5035039;28;20075;-71
2021/12/17 00:07:18;;;;;;;20.70;14.20;;;;;;;4.63;100.00;101352.03;5050595;28;20110;-70
2021/12/17 00:09:45;;;;;;;21.48;13.25;;;;;;;4.61;100.00;101364.41;5050571;28;20083;-68
2021/12/17 00:12:16;;;;;;;22.02;14.32;;;;;;;4.59;100.00;101358.44;5045109;28;20014;-69
2021/12/17 00:14:44;;;;;;;24.67;13.60;;;;;;;4.62;100.00;101360.00;5049042;28;20032;-68
2021/12/17 00:17:14;;;;;;;21.00;13.70;;;;;;;4.63;100.00;101349.41;5042597;28;20112;-68
2021/12/17 00:53:07;;;;;;;20.92;13.25;;;;;;;4.57;100.00;101338.50;5053337;28;20048;-72
2021/12/17 00:55:33;;;;;;;19.08;12.90;;;;;;;4.59;100.00;101336.59;5060158;28;20032;-70
2021/12/17 00:57:58;;;;;;;19.85;13.57;;;;;;;4.62;100.00;101331.94;5053052;28;20025;-69
2021/12/17 01:00:24;;;;;;;21.90;13.50;;;;;;;4.59;100.00;101324.28;5045541;28;20045;-68
2021/12/17 01:02:51;;;;;;;23.77;13.32;;;;;;;4.55;100.00;101329.88;5045155;28;20025;-68
2021/12/17 01:05:21;;;;;;;22.08;13.27;;;;;;;4.57;100.00;101330.63;5053899;28;20075;-69
2021/12/17 01:07:50;;;;;;;23.75;13.88;;;;;;;4.55;100.00;101324.63;5048095;28;20095;-71
2021/12/17 01:10:21;;;;;;;24.92;15.10;;;;;;;4.52;100.00;101323.06;5045274;28;20100;-68
2021/12/17 01:12:46;;;;;;;27.40;14.15;;;;;;;4.53;100.00;101323.91;5051494;28;20071;-71
2021/12/17 01:15:15;;;;;;;27.73;15.23;;;;;;;4.52;100.00;101322.25;5045408;28;20057;-67
2021/12/17 01:17:43;;;;;;;29.98;13.88;;;;;;;4.50;100.00;101317.13;5054758;28;20059;-69
2021/12/17 01:25:20;;;;;;;23.60;13.77;;;;;;;4.47;100.00;101303.34;5055233;28;20359;-68
2021/12/17 01:35:58;;;;;;;25.17;14.35;;;;;;;4.47;100.00;101291.06;5055122;28;20797;-73
2021/12/17 01:43:24;;;;;;;23.60;14.32;;;;;;;4.43;100.00;101300.13;5037837;28;20025;-74
2021/12/17 01:45:50;;;;;;;27.48;14.23;;;;;;;4.43;100.00;101292.25;5036826;28;20029;-65
2021/12/17 01:48:21;;;;;;;22.55;13.68;;;;;;;4.41;100.00;101289.75;5052893;28;20033;-67
2021/12/17 02:01:36;;;;;;;32.03;13.90;;;;;;;4.44;100.00;101283.41;5048137;28;20048;-70
2021/12/17 02:04:06;;;;;;;25.55;15.07;;;;;;;4.44;100.00;101283.41;5061658;28;20021;-71
2021/12/17 02:06:35;;;;;;;23.63;14.32;;;;;;;4.42;100.00;101285.34;5052930;28;20025;-71
2021/12/17 02:09:01;;;;;;;24.98;14.85;;;;;;;4.40;100.00;101280.16;5054504;28;20071;-70
2021/12/17 02:19:46;;;;;;;23.60;14.63;;;;;;;4.45;100.00;101266.69;5052034;28;20509;-69
2021/12/17 02:31:01;;;;;;;20.60;13.15;;;;;;;4.45;100.00;101261.44;5051725;28;20059;-66
2021/12/17 02:33:26;;;;;;;;;;;;;;;4.44;100.00;101260.59;5054171;28;20021;-69
2021/12/17 02:35:52;;;;;;;21.42;14.05;;;;;;;4.45;100.00;101261.44;5051688;28;20448;-69
2021/12/17 02:38:18;;;;;;;25.27;14.18;;;;;;;4.44;100.00;101265.03;5052185;28;20021;-70
2021/12/17 02:46:11;;;;;;;29.20;13.93;;;;;;;4.43;100.00;101260.72;5042682;28;20556;-67
2021/12/17 02:48:40;;;;;;;26.58;14.77;;;;;;;4.44;100.00;101254.53;5042744;28;20270;-70
2021/12/17 02:51:06;;;;;;;21.27;13.70;;;;;;;4.45;100.00;101261.44;5051938;28;20025;-69
2021/12/17 02:53:31;;;;;;;22.35;12.40;;;;;;;4.47;100.00;101258.69;5040203;28;20034;-71
2021/12/17 02:56:04;;;;;;;25.10;13.80;;;;;;;4.44;100.00;101257.97;5048365;28;20120;-72
2021/12/17 02:58:33;;;;;;;20.05;12.57;;;;;;;4.44;100.00;101265.03;5048155;28;20478;-68
2021/12/17 03:01:01;;;;;;;23.48;12.23;;;;;;;4.43;100.00;101266.81;5034449;28;20028;-68
2021/12/17 03:03:30;;;;;;;28.45;14.25;;;;;;;4.42;100.00;101259.91;5045089;28;20501;-70
2021/12/17 03:05:57;;;;;;;26.92;12.95;;;;;;;4.40;100.00;101263.56;5045674;28;20443;-69
2021/12/17 03:08:23;;;;;;;31.10;14.68;;;;;;;4.36;100.00;101259.53;5047324;28;20505;-70
2021/12/17 03:10:51;;;;;;;30.60;14.48;;;;;;;4.37;100.00;101254.16;5052666;28;20056;-71
2021/12/17 03:13:20;;;;;;;26.65;14.32;;;;;;;4.37;100.00;101253.31;5040797;28;20514;-69
2021/12/17 03:15:53;;;;;;;25.05;14.60;;;;;;;4.34;100.00;101253.56;5050355;28;20147;-72
2021/12/17 03:23:48;;;;;;;;;;;;;;;4.35;100.00;101247.34;5049608;28;20124;-69
2021/12/17 03:26:19;;;;;;;27.30;13.80;;;;;;;4.35;100.00;101245.56;5050633;28;19928;-72
2021/12/17 03:28:50;;;;;;;23.17;13.98;;;;;;;4.32;100.00;101251.03;5040012;28;20033;-71
2021/12/17 03:31:17;;;;;;;24.50;13.38;;;;;;;4.32;100.00;101248.41;5051663;28;20398;-72
2021/12/17 03:33:44;;;;;;;25.00;13.88;;;;;;;4.34;100.00;101238.63;5052499;28;20199;-67
2021/12/17 03:36:11;;;;;;;20.95;11.82;;;;;;;4.33;100.00;101230.84;5052731;28;20155;-70
2021/12/17 03:38:38;;;;;;;25.52;13.60;;;;;;;4.37;100.00;101241.00;5040359;28;20395;-70
2021/12/17 03:41:34;;;;;;;30.95;15.27;;;;;;;4.33;100.00;101241.34;5049478;28;20032;-67
2021/12/17 03:43:52;;;;;;;22.75;13.45;;;;;;;4.36;100.00;101241.13;5046619;28;20044;-73
2021/12/17 03:46:19;;;;;;;24.88;14.02;;;;;;;4.35;100.00;101244.72;5050126;28;20033;-68
2021/12/17 03:48:44;;;;;;;19.15;12.63;;;;;;;4.32;100.00;101242.31;5044258;28;20120;-73
2021/12/17 03:51:16;;;;;;;21.98;14.43;;;;;;;4.34;100.00;101250.94;5049201;28;20035;-72
2021/12/17 03:53:44;;;;;;;21.17;12.63;;;;;;;4.30;100.00;101244.22;5051243;28;20146;-71
2021/12/17 03:56:11;;;;;;;23.52;14.32;;;;;;;4.29;100.00;101250.44;5045134;28;20112;-67
2021/12/17 03:58:36;;;;;;;21.75;12.73;;;;;;;4.29;100.00;101250.44;5051038;28;20029;-67
2021/12/17 04:01:03;;;;;;;25.88;14.10;;;;;;;4.29;100.00;101240.75;5048724;28;20036;-67
2021/12/17 04:03:28;;;;;;;23.23;13.77;;;;;;;4.25;100.00;101244.56;5049561;28;20021;-69
2021/12/17 04:05:54;;;;;;;21.98;14.13;;;;;;;4.23;100.00;101243.03;5047558;28;20021;-72
2021/12/17 04:08:20;;;;;;;23.67;14.10;;;;;;;4.25;100.00;101243.72;5038195;28;20056;-70
2021/12/17 04:10:46;;;;;;;24.35;14.68;;;;;;;4.28;100.00;101249.59;5037954;28;20447;-70
2021/12/17 04:13:28;;;;;;;21.60;13.52;;;;;;;4.45;100.00;101245.69;5034908;28;20030;-67
2021/12/17 04:16:01;;;;;;;23.02;12.52;;;;;;;4.69;100.00;101249.03;5042645;28;20044;-69
2021/12/17 04:18:29;;;;;;;27.47;14.20;;;;;;;4.42;100.00;101238.03;5036696;28;20033;-71
2021/12/17 04:20:55;;;;;;;23.23;13.05;;;;;;;4.39;100.00;101241.72;5035087;28;20067;-73
2021/12/17 04:23:21;;;;;;;23.10;13.23;;;;;;;4.39;100.00;101235.63;5046547;28;20021;-68
2021/12/17 04:25:49;;;;;;;17.77;12.20;;;;;;;4.34;100.00;101241.25;5046721;28;20029;-68
2021/12/17 04:28:15;;;;;;;22.67;12.73;;;;;;;4.36;100.00;101241.13;5044052;28;20025;-68
2021/12/17 04:30:40;;;;;;;23.63;12.77;;;;;;;4.33;100.00;101241.34;5040019;28;20030;-67
2021/12/17 04:33:06;;;;;;;22.42;12.82;;;;;;;4.32;100.00;101234.44;5048552;28;20024;-72
2021/12/17 04:35:32;;;;;;;21.85;14.02;;;;;;;4.27;100.00;101237.44;5036721;28;20030;-68
2021/12/17 04:37:59;;;;;;;27.88;13.77;;;;;;;4.25;100.00;101228.81;5044093;28;20047;-69
2021/12/17 04:40:25;;;;;;;21.17;12.82;;;;;;;4.32;100.00;101226.56;5036374;28;20138;-70
2021/12/17 04:46:00;;;;;;;24.30;13.45;;;;;;;4.82;100.00;101230.53;5036216;28;20485;-70
2021/12/17 04:59:21;;;;;;;20.53;11.80;;;;;;;4.77;100.00;101221.31;5039037;28;20056;-67
2021/12/17 05:01:48;;;;;;;18.50;11.95;;;;;;;4.37;100.00;101219.16;5045113;28;20759;-66
2021/12/17 05:04:13;;;;;;;23.98;13.95;;;;;;;4.29;100.00;101214.50;5043133;28;20101;-69
2021/12/17 05:06:39;;;;;;;20.23;14.43;;;;;;;4.27;100.00;101218.22;5040787;28;20482;-70
2021/12/17 05:09:11;;;;;;;20.95;14.23;;;;;;;4.23;100.00;101216.75;5041888;28;20025;-74
2021/12/17 05:19:53;;;;;;;19.33;11.95;;;;;;;4.05;100.00;101198.00;5039371;28;20112;-72
2021/12/17 05:22:19;;;;;;;26.77;13.40;;;;;;;4.05;100.00;101200.63;5035012;28;20038;-67
2021/12/17 05:24:45;;;;;;;26.80;13.98;;;;;;;4.02;100.00;101203.47;5042522;28;20020;-72
2021/12/17 05:27:11;;;;;;;23.27;12.32;;;;;;;4.05;100.00;101198.00;5048961;28;20029;-70
2021/12/17 05:29:36;;;;;;;23.05;13.70;;;;;;;4.04;100.00;101197.16;5050568;28;20030;-72
2021/12/17 05:32:03;;;;;;;22.27;11.85;;;;;;;4.01;100.00;101194.75;5042355;28;20051;-72
2021/12/17 05:34:29;;;;;;;23.63;13.45;;;;;;;4.03;100.00;101197.25;5046956;28;20029;-67
2021/12/17 05:36:55;;;;;;;26.15;13.48;;;;;;;4.00;100.00;101198.34;5040422;28;20102;-76
2021/12/17 05:39:20;;;;;;;19.02;12.93;;;;;;;3.96;100.00;101193.41;5044515;28;20036;-73
2021/12/17 05:41:46;;;;;;;21.52;13.55;;;;;;;3.98;100.00;101195.00;5044878;28;20041;-69
2021/12/17 05:44:14;;;;;;;24.50;13.48;;;;;;;3.97;100.00;101195.13;5042378;28;20037;-73
2021/12/17 05:46:49;;;;;;;22.48;13.77;;;;;;;3.96;100.00;101196.03;5040734;28;20033;-68
2021/12/17 05:49:20;;;;;;;21.52;13.30;;;;;;;3.92;100.00;101190.19;5044847;28;20029;-73
2021/12/17 05:51:46;;;;;;;28.63;14.75;;;;;;;3.94;100.00;101188.28;5052408;28;20383;-74
2021/12/17 05:54:12;;;;;;;25.17;12.32;;;;;;;3.90;100.00;101188.66;5049807;28;20027;-71
2021/12/17 05:56:39;;;;;;;27.48;13.00;;;;;;;3.92;100.00;101189.38;5041202;28;20030;-71
2021/12/17 05:59:05;;;;;;;24.85;13.90;;;;;;;3.91;100.00;101193.78;5044573;28;20040;-77
2021/12/17 06:01:31;;;;;;;22.95;13.32;;;;;;;3.88;100.00;101202.69;5036006;28;20034;-67
2021/12/17 06:03:57;;;;;;;22.88;13.38;;;;;;;3.90;100.00;101202.63;5042315;28;20048;-67
2021/12/17 06:06:35;;;;;;;23.98;12.85;;;;;;;3.90;100.00;101201.78;5038357;28;20036;-67
2021/12/17 06:09:05;;;;;;;20.92;13.32;;;;;;;3.88;100.00;101194.81;5042132;28;20102;-70
2021/12/17 06:11:31;;;;;;;32.03;15.55;;;;;;;3.87;100.00;101189.69;5037723;28;20044;-69
2021/12/17 06:13:56;;;;;;;22.38;14.52;;;;;;;3.90;100.00;101186.88;5049313;28;20025;-69
2021/12/17 06:16:22;;;;;;;25.33;13.27;;;;;;;3.85;100.00;101186.38;5047702;28;20052;-68
2021/12/17 06:18:47;;;;;;;19.25;11.93;;;;;;;3.90;100.00;101194.75;5048612;28;20034;-69
2021/12/17 06:21:13;;;;;;;26.38;13.07;;;;;;;3.88;100.00;101196.63;5034738;28;20038;-69
2021/12/17 06:23:38;;;;;;;23.40;13.50;;;;;;;3.82;100.00;101187.44;5030141;28;20044;-69
2021/12/17 06:26:05;;;;;;;24.20;12.90;;;;;;;3.86;100.00;101203.78;5033200;28;20030;-71
2021/12/17 06:28:30;;;;;;;22.50;13.57;;;;;;;3.88;100.00;101194.00;5042517;28;20461;-68
2021/12/17 06:30:56;;;;;;;23.33;12.45;;;;;;;3.89;100.00;101208.78;5044078;28;20037;-69
2021/12/17 06:33:21;;;;;;;20.13;12.88;;;;;;;3.96;100.00;101202.13;5034414;28;20474;-69
2021/12/17 06:35:47;;;;;;;24.48;14.18;;;;;;;3.94;100.00;101203.19;5034223;28;20493;-69
2021/12/17 06:38:12;;;;;;;24.50;13.63;;;;;;;3.93;100.00;101207.63;5033799;28;20501;-68
2021/12/17 06:40:38;;;;;;;20.55;11.52;;;;;;;3.92;100.00;101208.56;5046223;28;20398;-69
2021/12/17 06:43:03;;;;;;;20.88;11.80;;;;;;;3.96;100.00;101211.78;5036527;28;20092;-68
2021/12/17 06:46:15;;;;;;;24.77;12.35;;;;;;;3.94;100.00;101209.28;5033452;28;20387;-69
2021/12/17 06:48:25;;;;;;;23.15;12.05;;;;;;;3.97;100.00;101208.25;5035663;28;20067;-70
2021/12/17 07:10:16;;;;;;;25.75;11.93;;;;;;;4.01;100.00;101225.41;5049036;28;20039;-69
2021/12/17 07:23:47;;;;;;;21.98;12.38;;;;;;;4.01;100.00;101228.03;5032646;28;20029;-69
2021/12/17 07:34:31;;;;;;;25.42;13.13;;;;;;;4.03;100.00;101211.22;5033313;28;20329;-69
2021/12/17 07:39:22;;;;;;;33.97;12.43;;;;;;;4.07;100.00;101215.28;5042328;28;20044;-68
2021/12/17 07:41:48;;;;;;;23.92;12.98;;;;;;;4.10;100.00;101209.78;5033028;28;20021;-68
2021/12/17 07:44:13;;;;;;;28.30;14.77;;;;;;;4.13;100.00;101211.38;5035723;28;20060;-68
2021/12/17 07:46:38;;;;;;;25.05;13.07;;;;;;;4.16;100.00;101209.34;5048732;28;20064;-71
2021/12/17 07:49:04;;;;;;;22.15;12.98;;;;;;;4.18;100.00;101213.63;5039031;28;20044;-68
2021/12/17 07:51:29;;;;;;;19.05;12.85;;;;;;;4.12;100.00;101205.28;5043011;28;20029;-67
2021/12/17 07:53:56;;;;;;;25.35;13.05;;;;;;;4.09;100.00;101202.88;5038982;28;20037;-70
2021/12/17 07:56:25;;;;;;;21.98;12.20;;;;;;;4.09;100.00;101204.66;5038358;28;20033;-69
2021/12/17 07:58:51;;;;;;;22.88;13.70;;;;;;;4.11;100.00;101205.38;5041804;28;20040;-68
2021/12/17 08:01:16;;;;;;;26.88;12.38;;;;;;;4.20;100.00;101214.38;5031436;28;20022;-70
2021/12/17 08:03:42;;;;;;;20.42;11.80;;;;;;;4.16;100.00;101216.38;5034270;28;20037;-69
2021/12/17 08:06:08;;;;;;;21.70;12.40;;;;;;;4.19;100.00;101217.94;5032822;28;20379;-69
2021/12/17 08:08:34;;;;;;;16.35;11.35;;;;;;;4.19;100.00;101226.66;5036047;28;20454;-69
2021/12/17 08:11:00;;;;;;;24.17;11.88;;;;;;;4.13;100.00;101233.22;5040402;28;20100;-69
2021/12/17 08:13:29;;;;;;;18.67;11.15;;;;;;;4.14;100.00;101232.25;5044232;28;20026;-68
2021/12/17 08:18:45;;;;;;;20.80;11.75;;;;;;;4.13;100.00;101229.75;5049036;28;20497;-69
2021/12/17 08:24:44;;;;;;;22.98;12.20;;;;;;;4.20;100.00;101240.63;5033836;28;20513;-69
2021/12/17 08:31:53;;;;;;;17.40;11.77;;;;;;;4.19;100.00;101228.44;5032198;28;20704;-71
2021/12/17 08:34:19;;;;;;;31.20;12.10;;;;;;;4.21;100.00;101219.50;5046983;28;20036;-69
2021/12/17 08:36:44;;;;;;;19.70;11.32;;;;;;;4.20;100.00;101225.72;5048630;28;20052;-68
2021/12/17 08:39:10;;;;;;;17.63;10.68;;;;;;;4.15;100.00;101222.59;5034408;28;20036;-68
2021/12/17 08:41:38;;;;;;;22.17;11.27;;;;;;;4.25;100.00;101220.94;5032506;28;20034;-70
2021/12/17 08:44:03;;;;;;;20.23;12.15;;;;;;;4.20;100.00;101217.84;5043064;28;20549;-69
2021/12/17 08:46:29;;;;;;;24.77;12.80;;;;;;;4.22;100.00;101228.22;5034294;28;20065;-68
2021/12/17 08:48:54;;;;;;;23.15;12.40;;;;;;;4.26;100.00;101224.38;5046212;28;20358;-69
2021/12/17 08:51:20;;;;;;;35.85;16.98;;;;;;;4.28;100.00;101218.09;5034777;28;20037;-68
2021/12/17 08:53:47;;;;;;;20.60;12.50;;;;;;;4.30;100.00;101210.09;5038763;28;20402;-70
2021/12/17 08:56:18;;;;;;;25.83;10.77;;;;;;;4.38;100.00;101205.06;5048935;28;20029;-71
2021/12/17 08:58:50;;;;;;;17.25;10.25;;;;;;;4.30;100.00;101210.91;5035603;28;20060;-70
2021/12/17 09:01:15;;;;;;;21.80;10.88;;;;;;;4.39;100.00;101210.19;5051964;28;20076;-69
2021/12/17 09:03:40;;;;;;;17.05;10.43;;;;;;;4.37;100.00;101200.78;5052508;28;20445;-70
2021/12/17 09:06:06;;;;;;;16.70;11.70;;;;;;;4.28;100.00;101191.81;5043351;28;20452;-69
2021/12/17 09:08:31;;;;;;;22.77;11.02;;;;;;;4.40;100.00;101195.28;5050820;28;20483;-71
2021/12/17 09:10:57;;;;;;;12.73;10.05;;;;;;;4.42;100.00;101188.13;5052346;28;20040;-69
2021/12/17 09:13:27;;;;;;;19.42;11.95;;;;;;;4.50;100.00;101190.16;5046176;28;20058;-69
2021/12/17 09:15:54;;;;;;;22.17;11.07;;;;;;;4.53;100.00;101190.75;5035196;28;20407;-71
2021/12/17 09:18:20;;;;;;;23.35;11.80;;;;;;;4.74;100.00;101190.03;5037138;28;20776;-71
2021/12/17 09:20:46;;;;;;;24.35;12.38;;;;;;;4.74;100.00;101179.53;5034766;28;20021;-70
2021/12/17 09:23:12;;;;;;;20.13;12.45;;;;;;;4.71;100.00;101178.81;5036711;28;20510;-70
2021/12/17 09:25:38;;;;;;;17.92;10.98;;;;;;;4.70;100.00;101177.16;5035707;28;20526;-69
2021/12/17 09:28:04;;;;;;;23.65;10.98;;;;;;;4.69;100.00;101170.19;5049688;28;20044;-70
2021/12/17 09:30:30;;;;;;;19.92;11.27;;;;;;;4.72;100.00;101167.34;5039745;28;20060;-68
2021/12/17 09:32:55;;;;;;;16.73;10.10;;;;;;;4.69;100.00;101172.00;5035718;28;20031;-68
2021/12/17 09:35:21;;;;;;;14.18;9.98;;;;;;;4.75;100.00;101173.31;5048323;28;20107;-70
2021/12/17 09:37:47;;;;;;;14.10;9.70;;;;;;;4.84;100.00;101168.16;5040063;28;20060;-70
2021/12/17 09:40:13;;;;;;;16.05;10.80;;;;;;;4.83;100.00;101168.28;5035414;28;20029;-67
2021/12/17 09:42:40;;;;;;;20.88;10.43;;;;;;;4.98;100.00;101165.25;5048249;28;20071;-70
2021/12/17 09:45:07;;;;;;;16.45;11.20;;;;;;;4.94;100.00;101165.63;5040976;28;20029;-70
2021/12/17 09:47:32;;;;;;;21.33;10.63;;;;;;;4.88;100.00;101159.06;5028378;28;20033;-70
2021/12/17 09:49:58;;;;;;;16.00;10.82;;;;;;;4.93;100.00;101161.34;5040716;28;20028;-71
2021/12/17 09:52:25;;;;;;;20.75;10.20;;;;;;;4.79;100.00;101154.56;5036447;28;20029;-69
2021/12/17 09:54:51;;;;;;;19.33;10.27;;;;;;;4.89;100.00;101155.47;5034491;28;20083;-70
2021/12/17 09:57:19;;;;;;;13.77;9.75;;;;;;;4.76;100.00;101156.56;5051137;28;20106;-68
2021/12/17 09:59:44;;;;;;;17.77;11.20;;;;;;;4.80;100.00;101150.97;5047791;28;20025;-69
2021/12/17 10:02:10;;;;;;;13.68;10.20;;;;;;;4.71;100.00;101162.22;5040144;28;20029;-68
2021/12/17 10:04:40;;;;;;;16.02;10.05;;;;;;;4.68;100.00;101149.28;5046111;28;20516;-69
2021/12/17 10:07:26;;;;;;;15.43;9.88;;;;;;;4.69;100.00;101150.97;5039412;28;20025;-70
2021/12/17 10:09:57;;;;;;;21.48;9.30;;;;;;;4.60;100.00;101156.94;5034474;28;20036;-69
2021/12/17 10:12:26;;;;;;;10.68;9.27;;;;;;;4.71;100.00;101141.19;5037997;28;20096;-70
2021/12/17 10:15:02;;;;;;;17.15;9.27;;;;;;;4.65;100.00;101139.88;5043398;28;20116;-68
2021/12/17 10:17:28;;;;;;;10.23;8.48;;;;;;;4.62;100.00;101145.34;5050742;28;20044;-70
2021/12/17 10:19:55;;;;;;;9.52;8.52;;;;;;;4.62;100.00;101153.22;5047434;28;20029;-69
2021/12/17 10:22:21;;;;;;;12.43;8.93;;;;;;;4.60;100.00;101143.81;5035474;28;20040;-69
2021/12/17 10:25:02;;;;;;;11.27;8.57;;;;;;;4.57;100.00;101139.66;5050992;28;20025;-70
2021/12/17 10:27:30;;;;;;;9.27;7.95;;;;;;;4.52;100.00;101126.03;5034758;28;20478;-70
2021/12/17 10:29:56;;;;;;;13.10;8.38;;;;;;;4.55;100.00;101128.41;5035965;28;20029;-69
2021/12/17 10:32:25;;;;;;;14.45;8.82;;;;;;;4.56;100.00;101124.84;5051632;28;20152;-70
2021/12/17 10:35:01;;;;;;;19.10;9.25;;;;;;;4.50;100.00;101111.34;5033634;28;20100;-69
2021/12/17 10:37:43;;;;;;;25.40;9.25;;;;;;;4.49;100.00;101112.31;5038969;28;20434;-68
2021/12/17 10:40:22;;;;;;;16.67;7.90;;;;;;;4.43;100.00;101118.88;5031604;28;20021;-69
2021/12/17 10:43:16;;;;;;;13.30;8.95;;;;;;;4.36;100.00;101110.63;5045638;28;20119;-68
2021/12/17 10:45:43;;;;;;;12.82;8.32;;;;;;;4.36;100.00;101118.53;5045410;28;20128;-68
2021/12/17 10:51:17;;;;;;;18.90;9.90;;;;;;;4.35;100.00;101095.84;5034230;28;20395;-68
2021/12/17 10:53:53;;;;;;;14.00;9.10;;;;;;;4.48;100.00;101100.97;5047634;28;20445;-70
2021/12/17 10:56:26;;;;;;;20.95;9.60;;;;;;;4.44;100.00;101099.53;5035328;28;20061;-70
2021/12/17 10:59:15;;;;;;;17.23;8.70;;;;;;;4.40;100.00;101093.66;5040093;28;20026;-68
2021/12/17 11:01:45;;;;;;;12.30;9.07;;;;;;;4.34;100.00;101091.53;5050330;28;20040;-70
2021/12/17 11:04:15;;;;;;;15.40;10.10;;;;;;;4.42;100.00;101098.81;5037454;28;20475;-69
2021/12/17 11:06:54;;;;;;;22.05;11.05;;;;;;;4.43;100.00;101095.22;5032123;28;20036;-68
2021/12/17 11:09:38;;;;;;;14.20;9.45;;;;;;;4.36;100.00;101081.75;5032849;28;20506;-69
2021/12/17 11:12:34;;;;;;;10.23;8.35;;;;;;;4.38;100.00;101092.13;5032618;28;20064;-70
2021/12/17 11:15:12;;;;;;;14.23;8.88;;;;;;;4.50;100.00;101088.53;5034663;28;20033;-70
2021/12/17 11:17:40;;;;;;;15.02;9.30;;;;;;;4.40;100.00;101088.41;5048356;28;20412;-68
2021/12/17 11:20:10;;;;;;;11.20;9.50;;;;;;;4.51;100.00;101092.84;5039008;28;20025;-71
2021/12/17 11:22:38;;;;;;;17.10;8.75;;;;;;;4.38;100.00;101097.38;5049044;28;20029;-68
2021/12/17 11:25:05;;;;;;;23.50;10.63;;;;;;;4.43;100.00;101090.81;5040589;28;20029;-70
2021/12/17 11:27:31;;;;;;;13.15;9.90;;;;;;;4.44;100.00;101081.97;5035898;28;20029;-70
2021/12/17 11:29:57;;;;;;;16.70;10.05;;;;;;;4.48;100.00;101086.97;5039964;28;20579;-69
2021/12/17 11:32:22;;;;;;;13.15;9.07;;;;;;;4.36;100.00;101084.38;5032969;28;20025;-69
2021/12/17 11:34:48;;;;;;;17.83;9.48;;;;;;;4.32;100.00;101093.44;5042174;28;20115;-69
2021/12/17 11:37:14;;;;;;;18.90;9.55;;;;;;;4.33;100.00;101086.38;5039940;28;20172;-70
2021/12/17 11:39:53;;;;;;;25.15;10.27;;;;;;;4.33;100.00;101074.13;5046710;28;20112;-68
2021/12/17 11:42:29;;;;;;;9.77;8.85;;;;;;;4.37;100.00;101074.69;5038844;28;20025;-70
2021/12/17 11:47:46;;;;;;;9.30;7.88;;;;;;;4.36;100.00;101073.88;5033002;28;20588;-68
2021/12/17 11:50:16;;;;;;;25.35;8.88;;;;;;;4.39;100.00;101070.16;5048465;28;20482;-69
2021/12/17 11:52:46;;;;;;;13.63;8.73;;;;;;;4.36;100.00;101068.63;5033164;28;20116;-70
2021/12/17 11:55:22;;;;;;;12.68;8.95;;;;;;;4.35;100.00;101076.63;5037792;28;20073;-69
2021/12/17 11:57:50;;;;;;;16.02;8.48;;;;;;;4.36;100.00;101060.72;5049141;28;20037;-69
2021/12/17 12:00:20;;;;;;;12.80;7.88;;;;;;;4.30;100.00;101061.22;5046803;28;20017;-70
2021/12/17 12:02:50;;;;;;;12.07;9.35;;;;;;;4.30;100.00;101063.84;5048846;28;20039;-69
2021/12/17 12:05:36;;;;;;;16.17;10.05;;;;;;;4.37;100.00;101053.69;5031497;28;20029;-69
2021/12/17 12:08:30;;;;;;;11.93;9.45;;;;;;;4.30;100.00;101065.63;5026871;28;20052;-69
2021/12/17 12:11:09;;;;;;;17.00;9.23;;;;;;;4.34;100.00;101070.53;5032778;28;20025;-69
2021/12/17 12:13:47;;;;;;;24.08;9.48;;;;;;;4.27;100.00;101055.38;5040767;28;20040;-69
2021/12/17 12:16:21;;;;;;;23.17;8.70;;;;;;;4.16;100.00;101057.03;5041183;28;20065;-68
2021/12/17 12:18:53;;;;;;;13.65;9.43;;;;;;;4.20;100.00;101054.19;5043011;28;20498;-69
2021/12/17 12:21:25;;;;;;;13.10;8.02;;;;;;;4.12;100.00;101057.41;5048734;28;20029;-69
2021/12/17 12:23:57;;;;;;;11.10;7.78;;;;;;;4.11;100.00;101063.59;5043815;28;20083;-70
2021/12/17 12:26:32;;;;;;;15.00;9.10;;;;;;;4.07;100.00;101060.41;5048717;28;20048;-70
2021/12/17 12:29:05;;;;;;;12.38;8.27;;;;;;;4.08;100.00;101055.97;5038691;28;20087;-69
2021/12/17 12:31:33;;;;;;;17.63;8.13;;;;;;;4.08;100.00;101055.97;5039665;28;20036;-68
2021/12/17 12:34:05;;;;;;;15.32;9.65;;;;;;;4.04;100.00;101065.91;5051841;28;20037;-70
2021/12/17 12:36:51;;;;;;;14.18;8.68;;;;;;;4.02;100.00;101070.41;5052528;28;20044;-68
2021/12/17 12:39:22;;;;;;;21.33;8.77;;;;;;;4.04;100.00;101071.16;5052931;28;20029;-69
2021/12/17 12:42:17;;;;;;;14.48;9.20;;;;;;;3.95;100.00;101063.97;5039541;28;20103;-70
2021/12/17 12:44:42;;;;;;;10.70;8.90;;;;;;;3.97;100.00;101072.56;5052941;28;20367;-70
2021/12/17 12:47:31;;;;;;;13.93;9.18;;;;;;;3.93;100.00;101068.50;5046788;28;20172;-69
2021/12/17 12:50:03;;;;;;;9.38;8.40;;;;;;;3.93;100.00;101060.63;5038274;28;20076;-69
2021/12/17 12:52:31;;;;;;;13.95;8.57;;;;;;;3.88;100.00;101068.00;5035830;28;20056;-68
2021/12/17 12:55:13;;;;;;;8.93;8.07;;;;;;;3.92;100.00;101068.63;5052359;28;20476;-70
2021/12/17 12:57:45;;;;;;;17.42;8.52;;;;;;;3.94;100.00;101064.09;5035933;28;20029;-69
2021/12/17 13:00:12;;;;;;;14.90;9.40;;;;;;;3.90;100.00;101063.50;5036154;28;20105;-70
2021/12/17 13:02:39;;;;;;;17.55;7.63;;;;;;;3.87;100.00;101064.56;5041452;28;20482;-70
2021/12/17 13:05:06;;;;;;;13.50;8.80;;;;;;;3.94;100.00;101077.22;5039181;28;20107;-69
2021/12/17 13:07:35;;;;;;;15.27;9.45;;;;;;;3.89;100.00;101069.69;5050064;28;20037;-70
2021/12/17 13:10:15;;;;;;;15.25;8.35;;;;;;;3.83;100.00;101073.63;5040402;28;20025;-68
2021/12/17 13:12:49;;;;;;;16.30;9.65;;;;;;;3.80;100.00;101063.34;5040966;28;20032;-68
2021/12/17 13:15:32;;;;;;;11.80;9.03;;;;;;;3.81;100.00;101069.44;5047310;28;20112;-70
2021/12/17 13:21:32;;;;;;;11.55;8.20;;;;;;;3.83;100.00;101076.25;5038112;28;20033;-69
2021/12/17 13:24:13;;;;;;;17.63;9.52;;;;;;;3.80;100.00;101078.25;5027289;28;20049;-70
2021/12/17 13:26:52;;;;;;;16.25;8.65;;;;;;;3.83;100.00;101073.63;5034506;28;20036;-69
2021/12/17 13:29:29;;;;;;;13.23;9.35;;;;;;;3.86;100.00;101069.94;5034603;28;20029;-70
2021/12/17 13:31:58;;;;;;;15.38;9.30;;;;;;;3.78;100.00;101075.75;5038373;28;20036;-69
2021/12/17 13:34:36;;;;;;;10.25;9.15;;;;;;;3.83;100.00;101078.06;5037471;28;20048;-69
2021/12/17 13:37:10;;;;;;;13.93;9.00;;;;;;;3.79;100.00;101064.31;5039808;28;20112;-68
2021/12/17 13:39:55;;;;;;;15.45;9.70;;;;;;;3.82;100.00;101076.38;5046432;28;20033;-71
2021/12/17 13:42:22;;;;;;;;;;;;;;;3.78;100.00;101060.03;5040313;28;20067;-70
2021/12/17 13:44:51;;;;;;;11.07;9.23;;;;;;;3.75;100.00;101076.00;5050866;28;19924;-69
2021/12/17 13:47:17;;;;;;;17.08;9.80;;;;;;;3.73;100.00;101077.06;5045570;28;20035;-68
2021/12/17 13:49:49;;;;;;;23.30;9.93;;;;;;;3.72;100.00;101072.78;5051457;28;20037;-68
2021/12/17 13:52:17;;;;;;;11.90;8.68;;;;;;;3.63;100.00;101076.09;5051343;28;20079;-69
2021/12/17 13:54:46;;;;;;;9.90;8.38;;;;;;;3.52;100.00;101077.72;5047475;28;20039;-69
2021/12/17 13:57:16;;;;;;;11.50;8.23;;;;;;;3.49;100.00;101067.47;5051327;28;20032;-69
2021/12/17 13:59:43;;;;;;;16.20;8.70;;;;;;;3.43;100.00;101070.56;5046449;28;20029;-71
2021/12/17 14:02:12;;;;;;;13.27;9.18;;;;;;;3.47;100.00;101072.03;5035258;28;20345;-68
2021/12/17 14:04:39;;;;;;;17.00;9.07;;;;;;;3.42;100.00;101081.19;5040540;28;20017;-68
2021/12/17 14:07:09;;;;;;;11.00;8.32;;;;;;;3.41;100.00;101074.25;5034689;28;20034;-68
2021/12/17 14:09:36;;;;;;;14.73;9.80;;;;;;;3.43;100.00;101067.09;5039310;28;20426;-68
2021/12/17 14:12:32;;;;;;;19.80;9.77;;;;;;;3.41;100.00;101079.50;5045770;28;20092;-67
2021/12/17 14:15:05;;;;;;;16.65;8.95;;;;;;;3.41;100.00;101082.97;5040880;28;20042;-71
2021/12/17 14:17:36;;;;;;;17.02;9.88;;;;;;;3.39;100.00;101071.75;5035682;28;20049;-68
2021/12/17 14:20:06;;;;;;;20.52;10.40;;;;;;;3.37;100.00;101080.69;5040266;28;20033;-67